Flight Track Log - Related Links

Times and Time Zones

All times are in EDT time to prevent confusion due to time zone crossing. See the JA-738J flight status page for this flight to view local times or setup timezone preferences in your user account.

Time Position Orientation Groundspeed Altitude Reporting Facility
EDT Latitude Longitude Course Direction KTS MPH feet Rate Location/Type
Sat 04:51:42 AM 35.6410 140.4650 149° Southeast 256 295 4,600  Level FlightAware ADS-B
Sat 04:52:17 AM 35.6030 140.4920 150° Southeast 271 312 5,900 2,133 Climbing FlightAware ADS-B
Sat 04:52:27 AM 35.5920 140.5000 149° Southeast 276 318 6,200 2,057 Climbing FlightAware ADS-B
Sat 04:53:27 AM 35.5530 140.5810 121° Southeast 297 342 8,300 2,188 Climbing FlightAware ADS-B
Sat 04:53:52 AM 35.5490 140.6210 97° East 299 344 9,300 1,971 Climbing FlightAware ADS-B
Sat 04:54:37 AM 35.5390 140.7020 99° East 331 381 10,600 1,500 Climbing FlightAware ADS-B
Sat 04:55:12 AM 35.5300 140.7730 99° East 364 419 11,300 1,200 Climbing FlightAware ADS-B
Sat 04:55:57 AM 35.5200 140.8610 98° East 383 441 12,200 1,835 Climbing FlightAware ADS-B
Sat 04:56:37 AM 35.5090 140.9590 98° East 402 463 13,900 2,250 Climbing FlightAware ADS-B
Sat 04:57:17 AM 35.5240 141.0500 79° East 400 460 15,200 1,680 Climbing FlightAware ADS-B
Sat 04:57:52 AM 35.5490 141.1150 65° Northeast 421 484 16,000 1,920 Climbing FlightAware ADS-B
Sat 04:58:32 AM 35.5860 141.2110 65° Northeast 431 496 17,600 2,118 Climbing FlightAware ADS-B
Sat 04:59:17 AM 35.6250 141.3100 64° Northeast 442 509 19,000 2,047 Climbing FlightAware ADS-B
Sat 04:59:57 AM 35.6610 141.4040 65° Northeast 448 516 20,500 1,950 Climbing FlightAware ADS-B
Sat 05:00:37 AM 35.6950 141.4920 65° Northeast 454 522 21,600 1,694 Climbing FlightAware ADS-B
Sat 05:01:22 AM 35.7370 141.6020 65° Northeast 465 535 22,900 1,694 Climbing FlightAware ADS-B
Sat 05:02:02 AM 35.7730 141.6950 64° Northeast 476 548 24,000 1,835 Climbing FlightAware ADS-B
Sat 05:02:47 AM 35.8160 141.8090 65° Northeast 480 552 25,500 1,694 Climbing FlightAware ADS-B
Sat 05:03:27 AM 35.8530 141.9050 65° Northeast 488 562 26,400 1,275 Climbing FlightAware ADS-B
Sat 05:04:07 AM 35.8880 141.9970 65° Northeast 496 571 27,200 1,360 Climbing FlightAware ADS-B
Sat 05:04:42 AM 35.9250 142.0970 65° Northeast 503 579 28,100 1,467 Climbing FlightAware ADS-B
Sat 05:05:37 AM 35.9800 142.2410 65° Northeast 510 587 29,400 1,543 Climbing FlightAware ADS-B
Sat 05:06:27 AM 36.0280 142.3710 65° Northeast 509 586 30,800 1,011 Climbing FlightAware ADS-B
Sat 05:07:12 AM 36.0740 142.4920 65° Northeast 508 585 31,000 150 Climbing FlightAware ADS-B
Sat 05:07:47 AM 36.1080 142.5850 66° East 509 586 31,000  Level FlightAware ADS-B
Sat 05:08:47 AM 36.1640 142.7350 65° Northeast 508 585 31,000  Level FlightAware ADS-B
Sat 05:09:32 AM 36.2090 142.8570 65° Northeast 508 585 31,000  Level FlightAware ADS-B
Sat 05:10:22 AM 36.2580 142.9910 66° East 509 586 31,000  Level FlightAware ADS-B
Sat 05:11:07 AM 36.2980 143.0990 65° Northeast 509 586 31,000 25 Level FlightAware ADS-B
Sat 07:10:02 AM 44.3667 164.1000 66° East 579 666 34,000 25 Climbing Oakland Oceanic (ODAPS)
Sat 07:10:25 AM 44.3333 164.0000 66° East 593 682 34,000  Level Oakland Oceanic (ODAPS)
Sat 07:16:18 AM 44.7833 165.4833 67° East 593 682 34,000  Level Oakland Oceanic (ODAPS)
Sat 07:37:04 AM 46.0000 170.0000 70° East 585 673 34,000  Level Oakland Oceanic (ODAPS)
Sat 07:42:58 AM 46.3167 171.3000 71° East 579 666 34,000  Level Oakland Oceanic (ODAPS)
Sat 07:46:27 AM 46.5000 172.0500 72° East 577 664 34,000  Level Oakland Oceanic (ODAPS)
Sat 07:46:38 AM 46.5000 172.0833 72° East 576 663 34,000  Level Oakland Oceanic (ODAPS)
Sat 08:00:51 AM 47.1333 175.0000 74° East 553 636 34,000  Level Oakland Oceanic (ODAPS)
Sat 08:09:39 AM 47.5000 176.9667 75° East 536 617 34,000  Level Oakland Oceanic (ODAPS)
Sat 08:14:45 AM 47.6833 178.0000 76° East 523 602 34,000  Level Oakland Oceanic (ODAPS)
Sat 08:24:31 AM 48.0000 180.0000 78° East 496 571 34,000  Level Oakland Oceanic (ODAPS)
Sat 08:36:20 AM 48.3167 -177.6833 79° East 469 540 34,000  Level Oakland Oceanic (ODAPS)
Sat 09:03:02 AM 48.8333 -172.6167 83° East 472 543 34,000  Level Oakland Oceanic (ODAPS)
Sat 09:16:18 AM 49.0000 -170.0000 77° East 506 582 34,000 158 Level Oakland Oceanic (ODAPS)
Sat 09:22:00 AM 49.1752 -168.7484 78° East 506 582 37,000 448 Climbing FlightAware Transoceanic
Sat 09:23:00 AM 49.2031 -168.5389 79° East 506 582 37,000  Level FlightAware Transoceanic
Sat 09:24:00 AM 49.2306 -168.3292 79° East 506 582 37,000  Level FlightAware Transoceanic
Sat 09:25:00 AM 49.2577 -168.1193 79° East 506 582 37,000  Level FlightAware Transoceanic
Sat 09:26:00 AM 49.2845 -167.9092 79° East 506 582 37,000  Level FlightAware Transoceanic
Sat 09:27:00 AM 49.3108 -167.6988 79° East 506 582 37,000  Level FlightAware Transoceanic
Sat 09:28:00 AM 49.3368 -167.4882 79° East 506 582 37,000  Level FlightAware Transoceanic
Sat 09:29:00 AM 49.3624 -167.2774 80° East 506 582 37,000 -1,782 Level FlightAware Transoceanic
Sat 09:29:41 AM 49.3500 -167.3167 79° East 519 597 34,000  Descending Oakland Oceanic (ODAPS)
Sat 09:30:00 AM 49.3876 -167.0664 80° East 506 582 37,000 2,278 Climbing FlightAware Transoceanic
Sat 09:31:00 AM 49.4124 -166.8551 80° East 506 582 37,000  Level FlightAware Transoceanic
Sat 09:32:00 AM 49.4369 -166.6436 80° East 506 582 37,000  Level FlightAware Transoceanic
Sat 09:33:00 AM 49.4609 -166.4320 80° East 506 582 37,000  Level FlightAware Transoceanic
Sat 09:34:00 AM 49.4846 -166.2201 80° East 506 582 37,000 -1,500 Level FlightAware Transoceanic
Sat 09:35:00 AM 49.4780 -166.2216 80° East 519 597 34,000 -1,500 Descending FlightAware Transoceanic
Sat 09:36:00 AM 49.5023 -166.0019 80° East 519 597 34,000  Level FlightAware Transoceanic
Sat 09:37:00 AM 49.5262 -165.7820 81° East 519 597 34,000  Level FlightAware Transoceanic
Sat 09:38:00 AM 49.5497 -165.5619 81° East 519 597 34,000  Level FlightAware Transoceanic
Sat 09:39:00 AM 49.5728 -165.3416 81° East 519 597 34,000  Level FlightAware Transoceanic
Sat 09:40:00 AM 49.5955 -165.1211 81° East 519 597 34,000  Level FlightAware Transoceanic
Sat 09:41:00 AM 49.6178 -164.9003 81° East 519 597 34,000  Level FlightAware Transoceanic
Sat 09:42:00 AM 49.6396 -164.6794 81° East 519 597 34,000  Level FlightAware Transoceanic
Sat 09:43:00 AM 49.6610 -164.4583 82° East 519 597 34,000  Level FlightAware Transoceanic
Sat 09:44:00 AM 49.6820 -164.2369 82° East 519 597 34,000  Level FlightAware Transoceanic
Sat 09:45:00 AM 49.7026 -164.0154 82° East 519 597 34,000  Level FlightAware Transoceanic
Sat 09:46:00 AM 49.7227 -163.7937 82° East 519 597 34,000  Level FlightAware Transoceanic
Sat 09:47:00 AM 49.7425 -163.5719 82° East 519 597 34,000  Level FlightAware Transoceanic
Sat 09:48:00 AM 49.7618 -163.3498 82° East 519 597 34,000  Level FlightAware Transoceanic
Sat 09:49:00 AM 49.7806 -163.1276 83° East 519 597 34,000  Level FlightAware Transoceanic
Sat 09:50:00 AM 49.7991 -162.9052 83° East 519 597 34,000  Level FlightAware Transoceanic
Sat 09:51:00 AM 49.8171 -162.6826 83° East 519 597 34,000  Level FlightAware Transoceanic
Sat 09:52:00 AM 49.8347 -162.4598 83° East 519 597 34,000  Level FlightAware Transoceanic
Sat 09:53:00 AM 49.8519 -162.2370 83° East 519 597 34,000  Level FlightAware Transoceanic
Sat 09:54:00 AM 49.8686 -162.0139 83° East 519 597 34,000  Level FlightAware Transoceanic
Sat 09:55:00 AM 49.8849 -161.7907 84° East 519 597 34,000  Level FlightAware Transoceanic
Sat 09:56:00 AM 49.9008 -161.5673 84° East 519 597 34,000  Level FlightAware Transoceanic
Sat 09:56:22 AM 49.9167 -161.4500 84° East 558 642 34,000  Level Oakland Oceanic (ODAPS)
Sat 09:57:00 AM 49.9163 -161.3438 84° East 519 597 34,000  Level FlightAware Transoceanic
Sat 09:58:00 AM 49.9313 -161.1202 84° East 519 597 34,000  Level FlightAware Transoceanic
Sat 09:59:00 AM 49.9459 -160.8964 84° East 519 597 34,000  Level FlightAware Transoceanic
Sat 10:00:00 AM 49.9601 -160.6725 84° East 519 597 34,000  Level FlightAware Transoceanic
Sat 10:01:00 AM 49.9738 -160.4485 85° East 519 597 34,000  Level FlightAware Transoceanic
Sat 10:02:00 AM 50.0000 -160.0000 95° East 558 642 34,000  Level FlightAware Transoceanic
Sat 10:02:27 AM 50.0000 -160.0000 95° East 561 646 34,000  Level Oakland Oceanic (ODAPS)
Sat 10:03:00 AM 49.9860 -159.7518 95° East 558 642 34,000  Level FlightAware Transoceanic
Sat 10:04:00 AM 49.9714 -159.5038 95° East 558 642 34,000  Level FlightAware Transoceanic
Sat 10:05:00 AM 49.9564 -159.2560 95° East 558 642 34,000  Level FlightAware Transoceanic
Sat 10:06:00 AM 49.9408 -159.0083 96° East 558 642 34,000  Level FlightAware Transoceanic
Sat 10:07:00 AM 49.9246 -158.7608 96° East 558 642 34,000  Level FlightAware Transoceanic
Sat 10:08:00 AM 49.9127 -158.5824 96° East 561 646 34,000  Level FlightAware Transoceanic
Sat 10:09:00 AM 49.8965 -158.3467 96° East 561 646 34,000  Level FlightAware Transoceanic
Sat 10:10:00 AM 49.8798 -158.1111 96° East 561 646 34,000  Level FlightAware Transoceanic
Sat 10:11:00 AM 49.8626 -157.8757 97° East 561 646 34,000  Level FlightAware Transoceanic
Sat 10:12:00 AM 49.8449 -157.6405 97° East 561 646 34,000  Level FlightAware Transoceanic
Sat 10:13:00 AM 49.8268 -157.4054 97° East 561 646 34,000  Level FlightAware Transoceanic
Sat 10:14:00 AM 49.8082 -157.1705 97° East 561 646 34,000  Level FlightAware Transoceanic
Sat 10:15:00 AM 49.7891 -156.9358 97° East 561 646 34,000  Level FlightAware Transoceanic
Sat 10:16:00 AM 49.7695 -156.7013 97° East 561 646 34,000  Level FlightAware Transoceanic
Sat 10:17:00 AM 49.7495 -156.4670 98° East 561 646 34,000  Level FlightAware Transoceanic
Sat 10:18:00 AM 49.7290 -156.2328 98° East 561 646 34,000  Level FlightAware Transoceanic
Sat 10:19:00 AM 49.7080 -155.9989 98° East 561 646 34,000  Level FlightAware Transoceanic
Sat 10:20:00 AM 49.6866 -155.7652 98° East 561 646 34,000  Level FlightAware Transoceanic
Sat 10:21:00 AM 49.6647 -155.5316 98° East 561 646 34,000  Level FlightAware Transoceanic
Sat 10:22:00 AM 49.6423 -155.2983 99° East 561 646 34,000  Level FlightAware Transoceanic
Sat 10:23:00 AM 49.6194 -155.0652 99° East 561 646 34,000  Level FlightAware Transoceanic
Sat 10:23:04 AM 49.6167 -155.0500 99° East 569 655 34,000  Level Oakland Oceanic (ODAPS)
Sat 10:24:00 AM 49.5961 -154.8324 99° East 561 646 34,000  Level FlightAware Transoceanic
Sat 10:25:00 AM 49.5723 -154.5997 99° East 561 646 34,000  Level FlightAware Transoceanic
Sat 10:26:00 AM 49.5481 -154.3673 99° East 561 646 34,000  Level FlightAware Transoceanic
Sat 10:27:00 AM 49.5234 -154.1351 99° East 561 646 34,000  Level FlightAware Transoceanic
Sat 10:28:00 AM 49.4982 -153.9032 100° East 561 646 34,000  Level FlightAware Transoceanic
Sat 10:29:00 AM 49.4630 -153.5945 100° East 569 655 34,000  Level FlightAware Transoceanic
Sat 10:30:00 AM 49.4356 -153.3529 100° East 569 655 34,000  Level FlightAware Transoceanic
Sat 10:31:00 AM 49.4077 -153.1115 100° East 569 655 34,000  Level FlightAware Transoceanic
Sat 10:32:00 AM 49.3794 -152.8703 100° East 569 655 34,000  Level FlightAware Transoceanic
Sat 10:33:00 AM 49.3505 -152.6295 101° East 569 655 34,000  Level FlightAware Transoceanic
Sat 10:34:00 AM 49.3211 -152.3889 101° East 569 655 34,000  Level FlightAware Transoceanic
Sat 10:35:00 AM 49.2912 -152.1487 101° East 569 655 34,000  Level FlightAware Transoceanic
Sat 10:36:00 AM 49.2608 -151.9087 101° East 569 655 34,000  Level FlightAware Transoceanic
Sat 10:37:00 AM 49.2299 -151.6690 101° East 569 655 34,000  Level FlightAware Transoceanic
Sat 10:38:00 AM 49.1986 -151.4297 101° East 569 655 34,000  Level FlightAware Transoceanic
Sat 10:39:00 AM 49.1667 -151.1906 102° East 569 655 34,000  Level FlightAware Transoceanic
Sat 10:40:00 AM 49.1343 -150.9518 102° East 569 655 34,000  Level FlightAware Transoceanic
Sat 10:41:00 AM 49.1015 -150.7134 102° East 569 655 34,000  Level FlightAware Transoceanic
Sat 10:42:00 AM 49.0681 -150.4753 102° East 569 655 34,000  Level FlightAware Transoceanic
Sat 10:43:00 AM 49.0343 -150.2375 102° East 569 655 34,000  Level FlightAware Transoceanic
Sat 10:44:00 AM 49.0000 -150.0000 95° East 569 655 34,000 741 Level FlightAware Transoceanic
Sat 10:44:21 AM 49.0000 -150.0000 95° East 583 671 35,000  Climbing Oakland Oceanic (ODAPS)
Sat 10:45:00 AM 48.9860 -149.7520 95° East 569 655 34,000 -606 Descending FlightAware Transoceanic
Sat 10:46:00 AM 48.9715 -149.5042 95° East 569 655 34,000  Level FlightAware Transoceanic
Sat 10:47:00 AM 48.9565 -149.2564 95° East 569 655 34,000  Level FlightAware Transoceanic
Sat 10:48:00 AM 48.9410 -149.0089 96° East 569 655 34,000  Level FlightAware Transoceanic
Sat 10:49:00 AM 48.9249 -148.7615 96° East 569 655 34,000 583 Level FlightAware Transoceanic
Sat 10:49:43 AM 48.9167 -148.6833 96° East 584 672 35,000 1,000 Climbing Oakland Oceanic (ODAPS)
Sat 10:50:00 AM 48.9107 -148.5496 96° East 583 671 35,000  Level FlightAware Transoceanic
Sat 10:51:00 AM 48.8940 -148.3083 96° East 583 671 35,000  Level FlightAware Transoceanic
Sat 10:52:00 AM 48.8769 -148.0673 96° East 583 671 35,000  Level FlightAware Transoceanic
Sat 10:53:00 AM 48.8592 -147.8264 96° East 583 671 35,000  Level FlightAware Transoceanic
Sat 10:54:00 AM 48.8410 -147.5857 97° East 583 671 35,000  Level FlightAware Transoceanic
Sat 10:55:00 AM 48.8287 -147.4600 97° East 584 672 35,000  Level FlightAware Transoceanic
Sat 10:56:00 AM 48.8096 -147.2159 97° East 584 672 35,000  Level FlightAware Transoceanic
Sat 10:57:00 AM 48.7900 -146.9720 97° East 584 672 35,000  Level FlightAware Transoceanic
Sat 10:58:00 AM 48.7698 -146.7282 97° East 584 672 35,000  Level FlightAware Transoceanic
Sat 10:59:00 AM 48.7491 -146.4847 97° East 584 672 35,000  Level FlightAware Transoceanic
Sat 11:00:00 AM 48.7279 -146.2413 98° East 584 672 35,000  Level FlightAware Transoceanic
Sat 11:01:00 AM 48.7062 -145.9982 98° East 584 672 35,000  Level FlightAware Transoceanic
Sat 11:02:00 AM 48.6840 -145.7552 98° East 584 672 35,000  Level FlightAware Transoceanic
Sat 11:03:00 AM 48.6613 -145.5125 98° East 584 672 35,000  Level FlightAware Transoceanic
Sat 11:04:00 AM 48.6381 -145.2701 98° East 584 672 35,000  Level FlightAware Transoceanic
Sat 11:05:00 AM 48.6143 -145.0278 99° East 584 672 35,000  Level FlightAware Transoceanic
Sat 11:06:00 AM 48.5901 -144.7858 99° East 584 672 35,000  Level FlightAware Transoceanic
Sat 11:07:00 AM 48.5653 -144.5439 99° East 584 672 35,000  Level FlightAware Transoceanic
Sat 11:08:00 AM 48.5400 -144.3024 99° East 584 672 35,000  Level FlightAware Transoceanic
Sat 11:09:00 AM 48.5143 -144.0611 99° East 584 672 35,000  Level FlightAware Transoceanic
Sat 11:10:00 AM 48.4880 -143.8200 99° East 584 672 35,000  Level FlightAware Transoceanic
Sat 11:11:00 AM 48.4612 -143.5792 100° East 584 672 35,000  Level FlightAware Transoceanic
Sat 11:12:00 AM 48.4339 -143.3386 100° East 584 672 35,000  Level FlightAware Transoceanic
Sat 11:13:00 AM 48.4062 -143.0983 100° East 584 672 35,000  Level FlightAware Transoceanic
Sat 11:14:00 AM 48.3779 -142.8583 100° East 584 672 35,000  Level FlightAware Transoceanic
Sat 11:15:00 AM 48.3491 -142.6185 100° East 584 672 35,000  Level FlightAware Transoceanic
Sat 11:16:00 AM 48.3199 -142.3790 101° East 584 672 35,000  Level FlightAware Transoceanic
Sat 11:16:23 AM 48.3000 -142.2167 101° East 585 673 35,000  Level Oakland Oceanic (ODAPS)
Sat 11:17:00 AM 48.2901 -142.1398 101° East 584 672 35,000  Level FlightAware Transoceanic
Sat 11:18:00 AM 48.2598 -141.9009 101° East 584 672 35,000  Level FlightAware Transoceanic
Sat 11:19:00 AM 48.2291 -141.6622 101° East 584 672 35,000  Level FlightAware Transoceanic
Sat 11:20:00 AM 48.1978 -141.4239 101° East 584 672 35,000  Level FlightAware Transoceanic
Sat 11:21:00 AM 48.1661 -141.1858 101° East 584 672 35,000  Level FlightAware Transoceanic
Sat 11:22:00 AM 48.1251 -140.8835 102° East 585 673 35,000  Level FlightAware Transoceanic
Sat 11:23:00 AM 48.0945 -140.6623 102° East 585 673 35,000  Level FlightAware Transoceanic
Sat 11:24:00 AM 48.0634 -140.4412 102° East 585 673 35,000  Level FlightAware Transoceanic
Sat 11:25:00 AM 48.0319 -140.2205 102° East 585 673 35,000  Level FlightAware Transoceanic
Sat 11:25:46 AM 48.0000 -140.0000 116° Southeast 583 671 35,000  Level Oakland Oceanic (ODAPS)
Sat 11:26:00 AM 48.0000 -140.0000 116° Southeast 585 673 35,000  Level FlightAware Transoceanic
Sat 11:27:00 AM 47.9275 -139.7813 116° Southeast 585 673 35,000  Level FlightAware Transoceanic
Sat 11:28:00 AM 47.8546 -139.5632 117° Southeast 585 673 35,000  Level FlightAware Transoceanic
Sat 11:29:00 AM 47.7812 -139.3458 117° Southeast 585 673 35,000  Level FlightAware Transoceanic
Sat 11:30:00 AM 47.7075 -139.1289 117° Southeast 585 673 35,000  Level FlightAware Transoceanic
Sat 11:31:00 AM 47.6333 -138.9127 117° Southeast 585 673 35,000  Level FlightAware Transoceanic
Sat 11:32:00 AM 47.5588 -138.6971 117° Southeast 583 671 35,000  Level FlightAware Transoceanic
Sat 11:33:00 AM 47.4838 -138.4821 117° Southeast 583 671 35,000  Level FlightAware Transoceanic
Sat 11:34:00 AM 47.4084 -138.2677 118° Southeast 583 671 35,000  Level FlightAware Transoceanic
Sat 11:35:00 AM 47.3327 -138.0539 118° Southeast 583 671 35,000  Level FlightAware Transoceanic
Sat 11:36:00 AM 47.2565 -137.8408 118° Southeast 583 671 35,000  Level FlightAware Transoceanic
Sat 11:37:00 AM 47.1800 -137.6282 118° Southeast 583 671 35,000  Level FlightAware Transoceanic
Sat 11:38:00 AM 47.1030 -137.4163 118° Southeast 583 671 35,000  Level FlightAware Transoceanic
Sat 11:39:00 AM 47.0257 -137.2050 118° Southeast 583 671 35,000  Level FlightAware Transoceanic
Sat 11:40:00 AM 46.9479 -136.9943 118° Southeast 583 671 35,000  Level FlightAware Transoceanic
Sat 11:41:00 AM 46.8698 -136.7842 119° Southeast 583 671 35,000  Level FlightAware Transoceanic
Sat 11:42:00 AM 46.7914 -136.5747 119° Southeast 583 671 35,000  Level FlightAware Transoceanic
Sat 11:43:00 AM 46.7125 -136.3658 119° Southeast 583 671 35,000  Level FlightAware Transoceanic
Sat 11:43:04 AM 46.7000 -136.3500 119° Southeast 580 667 35,000  Level Oakland Oceanic (ODAPS)
Sat 11:44:00 AM 46.6332 -136.1576 119° Southeast 583 671 35,000  Level FlightAware Transoceanic
Sat 11:45:00 AM 46.5536 -135.9499 119° Southeast 583 671 35,000  Level FlightAware Transoceanic
Sat 11:46:00 AM 46.4736 -135.7429 119° Southeast 583 671 35,000  Level FlightAware Transoceanic
Sat 11:47:00 AM 46.3932 -135.5365 120° Southeast 583 671 35,000  Level FlightAware Transoceanic
Sat 11:48:00 AM 46.3125 -135.3306 120° Southeast 583 671 35,000  Level FlightAware Transoceanic
Sat 11:49:00 AM 46.2211 -135.1129 120° Southeast 580 667 35,000  Level FlightAware Transoceanic
Sat 11:50:00 AM 46.1400 -134.9088 120° Southeast 580 667 35,000  Level FlightAware Transoceanic
Sat 11:51:00 AM 46.0585 -134.7054 120° Southeast 580 667 35,000  Level FlightAware Transoceanic
Sat 11:52:00 AM 45.9767 -134.5025 120° Southeast 580 667 35,000  Level FlightAware Transoceanic
Sat 11:52:41 AM 45.9333 -134.4000 120° Southeast 577 664 35,000  Level Oakland Oceanic (ODAPS)
Sat 11:52:51 AM 45.9333 -134.4000 120° Southeast 578 665 35,000  Level Oakland Oceanic (ODAPS)
Sat 11:53:00 AM 45.8945 -134.3002 120° Southeast 580 667 35,000  Level FlightAware Transoceanic
Sat 11:54:00 AM 45.8120 -134.0986 121° Southeast 580 667 35,000  Level FlightAware Transoceanic
Sat 11:55:00 AM 45.7291 -133.8975 121° Southeast 580 667 35,000  Level FlightAware Transoceanic
Sat 11:56:00 AM 45.6458 -133.6970 121° Southeast 580 667 35,000  Level FlightAware Transoceanic
Sat 11:57:00 AM 45.5622 -133.4971 121° Southeast 580 667 35,000  Level FlightAware Transoceanic
Sat 11:58:00 AM 45.5090 -133.3738 121° Southeast 578 665 35,000  Level FlightAware Transoceanic
Sat 11:59:00 AM 45.4230 -133.1705 121° Southeast 578 665 35,000  Level FlightAware Transoceanic
Sat 12:00:00 PM 45.3367 -132.9677 121° Southeast 578 665 35,000  Level FlightAware Transoceanic
Sat 12:01:00 PM 45.2500 -132.7656 121° Southeast 578 665 35,000  Level FlightAware Transoceanic
Sat 12:02:00 PM 45.1629 -132.5641 122° Southeast 578 665 35,000  Level FlightAware Transoceanic
Sat 12:03:00 PM 45.0755 -132.3632 122° Southeast 578 665 35,000  Level FlightAware Transoceanic
Sat 12:04:00 PM 44.9878 -132.1629 122° Southeast 578 665 35,000  Level FlightAware Transoceanic
Sat 12:05:00 PM 44.8997 -131.9632 122° Southeast 578 665 35,000  Level FlightAware Transoceanic
Sat 12:06:00 PM 44.8112 -131.7642 122° Southeast 578 665 35,000  Level FlightAware Transoceanic
Sat 12:07:00 PM 44.7225 -131.5657 122° Southeast 578 665 35,000  Level FlightAware Transoceanic
Sat 12:08:00 PM 44.6333 -131.3679 122° Southeast 578 665 35,000  Level FlightAware Transoceanic
Sat 12:09:00 PM 44.5439 -131.1707 123° Southeast 578 665 35,000  Level FlightAware Transoceanic
Sat 12:09:44 PM 44.5167 -131.1167 122° Southeast 571 657 35,000  Level Oakland Oceanic (ODAPS)
Sat 12:10:00 PM 44.4540 -130.9741 123° Southeast 578 665 35,000  Level FlightAware Transoceanic
Sat 12:11:00 PM 44.3639 -130.7780 123° Southeast 578 665 35,000  Level FlightAware Transoceanic
Sat 12:12:00 PM 44.2734 -130.5826 123° Southeast 578 665 35,000  Level FlightAware Transoceanic
Sat 12:13:00 PM 44.1826 -130.3878 123° Southeast 578 665 35,000  Level FlightAware Transoceanic
Sat 12:14:00 PM 44.0915 -130.1936 123° Southeast 578 665 35,000  Level FlightAware Transoceanic
Sat 12:15:00 PM 44.0869 -130.1848 123° Southeast 571 657 35,000  Level FlightAware Transoceanic
Sat 12:15:47 PM 44.0000 -130.0000 134° Southeast 570 656 35,000  Level Oakland Oceanic (ODAPS)
Sat 12:16:00 PM 44.0000 -130.0000 134° Southeast 571 657 35,000  Level FlightAware Transoceanic
Sat 12:17:00 PM 43.8871 -129.8360 134° Southeast 571 657 35,000  Level FlightAware Transoceanic
Sat 12:17:13 PM 43.8333 -129.7667 134° Southeast 568 654 35,000  Level Oakland Oceanic (ODAPS)
Sat 12:18:00 PM 43.7740 -129.6725 134° Southeast 571 657 35,000  Level FlightAware Transoceanic
Sat 12:19:00 PM 43.6607 -129.5098 134° Southeast 571 657 35,000  Level FlightAware Transoceanic
Sat 12:20:00 PM 43.5471 -129.3476 134° Southeast 571 657 35,000  Level FlightAware Transoceanic
Sat 12:20:22 PM 43.5167 -129.3000 134° Southeast 569 655 35,000  Level Oakland Oceanic (ODAPS)
Sat 12:21:00 PM 43.4333 -129.1860 134° Southeast 571 657 35,000  Level FlightAware Transoceanic
Sat 12:22:00 PM 43.3193 -129.0250 134° Southeast 570 656 35,000  Level FlightAware Transoceanic
Sat 12:23:00 PM 43.1678 -128.8184 134° Southeast 568 654 35,000  Level FlightAware Transoceanic
Sat 12:24:00 PM 43.0561 -128.6623 134° Southeast 568 654 35,000  Level FlightAware Transoceanic
Sat 12:25:00 PM 42.9442 -128.5069 135° Southeast 568 654 35,000  Level FlightAware Transoceanic
Sat 12:26:00 PM 42.8416 -128.3581 135° Southeast 569 655 35,000  Level FlightAware Transoceanic
Sat 12:27:00 PM 42.7284 -128.2031 135° Southeast 569 655 35,000  Level FlightAware Transoceanic
Sat 12:28:00 PM 42.6149 -128.0487 135° Southeast 569 655 35,000  Level FlightAware Transoceanic
Sat 12:29:00 PM 42.5013 -127.8948 135° Southeast 569 655 35,000  Level FlightAware Transoceanic
Sat 12:30:00 PM 42.3874 -127.7415 135° Southeast 569 655 35,000  Level FlightAware Transoceanic
Sat 12:31:00 PM 42.2733 -127.5888 135° Southeast 569 655 35,000  Level FlightAware Transoceanic
Sat 12:32:00 PM 42.1591 -127.4366 135° Southeast 569 655 35,000  Level FlightAware Transoceanic
Sat 12:33:00 PM 42.0446 -127.2850 136° Southeast 569 655 35,000  Level FlightAware Transoceanic
Sat 12:34:00 PM 41.9299 -127.1339 136° Southeast 569 655 35,000  Level FlightAware Transoceanic
Sat 12:35:00 PM 41.8151 -126.9833 136° Southeast 569 655 35,000 -588 Level FlightAware Transoceanic
Sat 12:35:42 PM 41.7828 -126.9561 134° Southeast 568 654 34,000  Descending Seattle Center
Sat 12:36:00 PM 41.7000 -126.8333 133° Southeast 569 655 35,000  Climbing FlightAware Transoceanic
Sat 12:36:42 PM 41.6706 -126.8106 136° Southeast 566 651 34,000  Descending Seattle Center
Sat 12:37:00 PM 41.5962 -126.6852 133° Southeast 569 655 35,000  Climbing FlightAware Transoceanic
Sat 12:37:43 PM 41.5639 -126.6564 133° Southeast 566 651 34,000  Descending Seattle Center
Sat 12:38:00 PM 41.4921 -126.5375 133° Southeast 569 655 35,000  Climbing FlightAware Transoceanic
Sat 12:38:44 PM 41.4581 -126.5022 132° Southeast 566 651 34,000  Descending Seattle Center
Sat 12:39:00 PM 41.3879 -126.3903 133° Southeast 569 655 35,000  Climbing FlightAware Transoceanic
Sat 12:39:44 PM 41.3506 -126.3503 133° Southeast 565 650 34,000  Descending Seattle Center
Sat 12:40:00 PM 41.2835 -126.2435 134° Southeast 569 655 35,000 -98 Climbing FlightAware Transoceanic
Sat 12:40:45 PM 41.2444 -126.1964 132° Southeast 566 651 33,900  Descending Seattle Center
Sat 12:41:00 PM 41.1789 -126.0973 134° Southeast 569 655 35,000  Climbing FlightAware Transoceanic
Sat 12:41:46 PM 41.1397 -126.0469 133° Southeast 558 642 33,900 -566 Descending Seattle Center
Sat 12:42:46 PM 41.0314 -125.8981 134° Southeast 560 644 34,000 50 Climbing Seattle Center
Sat 12:43:47 PM 40.9247 -125.7506 134° Southeast 559 643 34,000  Level Seattle Center
Sat 12:44:48 PM 40.8175 -125.6033 134° Southeast 558 642 34,000  Level Seattle Center
Sat 12:45:48 PM 40.7103 -125.4567 134° Southeast 558 642 34,000 -50 Level Seattle Center
Sat 12:46:49 PM 40.6022 -125.3111 134° Southeast 557 641 33,900  Descending Seattle Center
Sat 12:47:50 PM 40.4961 -125.1650 134° Southeast 557 641 34,000 49 Climbing Seattle Center
Sat 12:48:51 PM 40.3667 -124.9914 134° Southeast 557 641 34,000  Level Seattle Center
Sat 12:49:51 PM 40.2600 -124.8486 134° Southeast 555 639 34,000  Level Seattle Center
Sat 12:50:07 PM 40.2392 -124.8206 134° Southeast 554 638 34,000  Level Oakland Center
Sat 12:51:08 PM 40.1325 -124.6775 134° Southeast 555 639 34,000 -158 Level Oakland Center
Sat 12:56:27 PM 39.5460 -123.9070 134° Southeast 550 633 33,000 -167 Descending FlightAware ADS-B
Sat 12:57:07 PM 39.4760 -123.8170 135° Southeast 548 631 33,000  Level FlightAware ADS-B
Sat 12:57:52 PM 39.3920 -123.7080 135° Southeast 551 634 33,000  Level FlightAware ADS-B
Sat 12:58:32 PM 39.3210 -123.6170 135° Southeast 551 634 33,000  Level FlightAware ADS-B
Sat 12:59:12 PM 39.2500 -123.5250 135° Southeast 550 633 33,000  Level FlightAware ADS-B
Sat 12:59:57 PM 39.1670 -123.4200 136° Southeast 550 633 33,000  Level FlightAware ADS-B
Sat 01:00:37 PM 39.0950 -123.3280 135° Southeast 547 629 33,000  Level FlightAware ADS-B
Sat 01:01:22 PM 39.0090 -123.2290 138° Southeast 546 628 33,000  Level FlightAware ADS-B
Sat 01:02:02 PM 38.9320 -123.1490 141° Southeast 538 619 33,000  Level FlightAware ADS-B
Sat 01:02:42 PM 38.8520 -123.0680 142° Southeast 538 619 33,000  Level FlightAware ADS-B
Sat 01:03:27 PM 38.7640 -122.9790 142° Southeast 537 618 33,000  Level FlightAware ADS-B
Sat 01:04:07 PM 38.6850 -122.8990 142° Southeast 538 619 33,000  Level FlightAware ADS-B
Sat 01:04:52 PM 38.6040 -122.8170 142° Southeast 537 618 33,000  Level FlightAware ADS-B
Sat 01:05:32 PM 38.5140 -122.7250 141° Southeast 540 621 33,000  Level FlightAware ADS-B
Sat 01:06:12 PM 38.4360 -122.6470 142° Southeast 538 619 33,000  Level FlightAware ADS-B
Sat 01:06:57 PM 38.3470 -122.5580 142° Southeast 537 618 33,000  Level FlightAware ADS-B
Sat 01:07:37 PM 38.2680 -122.4790 142° Southeast 537 618 33,000  Level FlightAware ADS-B
Sat 01:08:22 PM 38.1830 -122.3940 142° Southeast 538 619 33,000  Level FlightAware ADS-B
Sat 01:09:02 PM 38.1030 -122.3150 142° Southeast 537 618 33,000  Level FlightAware ADS-B
Sat 01:09:42 PM 38.0250 -122.2380 142° Southeast 537 618 33,000  Level FlightAware ADS-B
Sat 01:10:27 PM 37.9380 -122.1520 142° Southeast 534 615 33,000  Level FlightAware ADS-B
Sat 01:11:07 PM 37.8600 -122.0750 142° Southeast 527 606 33,000  Level FlightAware ADS-B
Sat 01:11:47 PM 37.7830 -122.0000 142° Southeast 525 604 33,000  Level FlightAware ADS-B
Sat 01:12:32 PM 37.6960 -121.9150 142° Southeast 524 603 33,000  Level FlightAware ADS-B
Sat 01:13:12 PM 37.6190 -121.8390 142° Southeast 521 600 33,000  Level FlightAware ADS-B
Sat 01:13:52 PM 37.5430 -121.7650 142° Southeast 519 597 33,000  Level FlightAware ADS-B
Sat 01:14:37 PM 37.4610 -121.6860 143° Southeast 519 597 33,000  Level FlightAware ADS-B
Sat 01:15:17 PM 37.3860 -121.6130 142° Southeast 519 597 33,000  Level FlightAware ADS-B
Sat 01:15:57 PM 37.3090 -121.5380 142° Southeast 519 597 33,000  Level FlightAware ADS-B
Sat 01:16:42 PM 37.2230 -121.4550 142° Southeast 517 595 33,000  Level FlightAware ADS-B
Sat 01:17:22 PM 37.1460 -121.3820 143° Southeast 517 595 33,000  Level FlightAware ADS-B
Sat 01:18:12 PM 37.0560 -121.2950 142° Southeast 517 595 33,000  Level FlightAware ADS-B
Sat 01:18:52 PM 36.9740 -121.2170 143° Southeast 513 590 33,000  Level FlightAware ADS-B
Sat 01:19:37 PM 36.8920 -121.1300 140° Southeast 512 589 33,000  Level FlightAware ADS-B
Sat 01:20:17 PM 36.8290 -121.0440 132° Southeast 511 588 33,000  Level FlightAware ADS-B
Sat 01:20:57 PM 36.7700 -120.9630 132° Southeast 511 588 33,000  Level FlightAware ADS-B
Sat 01:21:42 PM 36.6930 -120.8580 132° Southeast 511 588 33,000  Level FlightAware ADS-B
Sat 01:22:22 PM 36.6310 -120.7740 133° Southeast 510 587 33,000  Level FlightAware ADS-B
Sat 01:23:07 PM 36.5570 -120.6750 133° Southeast 510 587 33,000  Level FlightAware ADS-B
Sat 01:23:47 PM 36.4920 -120.5900 134° Southeast 512 589 33,000  Level FlightAware ADS-B
Sat 01:24:27 PM 36.4170 -120.5190 143° Southeast 514 592 33,000  Level FlightAware ADS-B
Sat 01:25:12 PM 36.3250 -120.4540 150° Southeast 516 594 33,000  Level FlightAware ADS-B
Sat 01:25:52 PM 36.2410 -120.3950 150° Southeast 514 592 33,000  Level FlightAware ADS-B
Sat 01:26:32 PM 36.1600 -120.3380 150° Southeast 513 590 33,000  Level FlightAware ADS-B
Sat 01:27:17 PM 36.0640 -120.2710 151° Southeast 512 589 33,000  Level FlightAware ADS-B
Sat 01:27:57 PM 35.9840 -120.2140 150° Southeast 512 589 33,000  Level FlightAware ADS-B
Sat 01:28:42 PM 35.8890 -120.1470 150° Southeast 513 590 33,000  Level FlightAware ADS-B
Sat 01:29:22 PM 35.8080 -120.0910 151° Southeast 513 590 33,000  Level FlightAware ADS-B
Sat 01:30:07 PM 35.7160 -120.0270 151° Southeast 513 590 33,000  Level FlightAware ADS-B
Sat 01:30:47 PM 35.6320 -119.9640 149° Southeast 514 592 33,000  Level FlightAware ADS-B
Sat 01:31:27 PM 35.5610 -119.9040 145° Southeast 513 590 33,000  Level FlightAware ADS-B
Sat 01:32:07 PM 35.4800 -119.8340 145° Southeast 509 586 33,000  Level FlightAware ADS-B
Sat 01:32:52 PM 35.3890 -119.7560 145° Southeast 512 589 33,000 -353 Level FlightAware ADS-B
Sat 01:33:32 PM 35.3160 -119.6930 145° Southeast 506 582 32,500 -1,275 Descending FlightAware ADS-B
Sat 01:34:12 PM 35.2390 -119.6270 145° Southeast 490 564 31,300 -2,259 Descending FlightAware ADS-B
Sat 01:34:57 PM 35.1560 -119.5560 145° Southeast 469 540 29,300 -2,259 Descending FlightAware ADS-B
Sat 01:35:37 PM 35.0890 -119.4990 145° Southeast 461 531 28,100 -1,976 Descending FlightAware ADS-B
Sat 01:36:22 PM 35.0060 -119.4280 145° Southeast 453 521 26,500 -1,906 Descending FlightAware ADS-B
Sat 01:37:02 PM 34.9410 -119.3730 145° Southeast 445 512 25,400 -1,624 Descending FlightAware ADS-B
Sat 01:37:47 PM 34.8680 -119.3110 145° Southeast 436 502 24,200 -1,412 Descending FlightAware ADS-B
Sat 01:38:27 PM 34.7990 -119.2530 145° Southeast 414 476 23,400 -1,500 Descending FlightAware ADS-B
Sat 01:39:07 PM 34.7390 -119.2020 145° Southeast 402 463 22,200 -1,832 Descending FlightAware ADS-B
Sat 01:40:02 PM 34.6600 -119.1360 145° Southeast 381 438 20,500 -1,680 Descending FlightAware ADS-B
Sat 01:40:47 PM 34.5950 -119.0810 145° Southeast 352 405 19,400 -1,765 Descending FlightAware ADS-B
Sat 01:41:27 PM 34.5420 -119.0360 145° Southeast 353 406 18,000 -1,694 Descending FlightAware ADS-B
Sat 01:42:12 PM 34.4800 -118.9850 146° Southeast 340 391 17,000 -1,341 Descending FlightAware ADS-B
Sat 01:42:52 PM 34.4290 -118.9410 145° Southeast 336 387 16,100 -1,350 Descending FlightAware ADS-B
Sat 01:43:32 PM 34.3760 -118.8980 146° Southeast 330 380 15,200 -1,271 Descending FlightAware ADS-B
Sat 01:44:17 PM 34.3130 -118.8650 157° South 319 367 14,300 -1,271 Descending FlightAware ADS-B
Sat 01:44:57 PM 34.2570 -118.8440 163° South 321 369 13,400 -1,350 Descending FlightAware ADS-B
Sat 01:45:37 PM 34.1990 -118.8240 164° South 317 365 12,500 -1,271 Descending FlightAware ADS-B
Sat 01:46:22 PM 34.1370 -118.8010 163° South 305 351 11,600 -1,271 Descending FlightAware ADS-B
Sat 01:47:02 PM 34.0810 -118.7800 163° South 302 348 10,700 -1,286 Descending FlightAware ADS-B
Sat 01:47:32 PM 34.0460 -118.7530 147° Southeast 312 359 10,100 -933 Descending FlightAware ADS-B
Sat 01:47:47 PM 34.0360 -118.7300 118° Southeast 310 357 10,000 -109 Descending FlightAware ADS-B
Sat 01:48:27 PM 34.0290 -118.6640 97° East 283 326 10,000 -86 Level FlightAware ADS-B
Sat 01:48:57 PM 34.0260 -118.6180 94° East 279 321 9,900 -764 Descending FlightAware ADS-B
Sat 01:49:22 PM 34.0220 -118.5780 97° East 280 322 9,300 -1,636 Descending FlightAware ADS-B
Sat 01:49:52 PM 34.0180 -118.5330 96° East 277 319 8,400 -1,867 Descending FlightAware ADS-B
Sat 01:50:07 PM 34.0160 -118.5100 96° East 275 316 7,900 -2,100 Descending FlightAware ADS-B
Sat 01:50:32 PM 34.0120 -118.4700 97° East 275 316 7,000 -1,964 Descending FlightAware ADS-B
Sat 01:51:02 PM 34.0140 -118.4260 87° East 267 307 6,100 -1,527 Descending FlightAware ADS-B
Sat 01:51:27 PM 34.0180 -118.3900 82° East 249 287 5,600 -1,309 Descending FlightAware ADS-B
Sat 01:51:57 PM 34.0220 -118.3490 83° East 243 280 4,900 -1,333 Descending FlightAware ADS-B
Sat 01:52:12 PM 34.0250 -118.3270 81° East 239 275 4,600 -933 Descending FlightAware ADS-B
Sat 01:52:42 PM 34.0290 -118.2880 83° East 231 266 4,200 -655 Descending FlightAware ADS-B
Sat 01:53:07 PM 34.0310 -118.2570 86° East 212 244 4,000 -327 Descending FlightAware ADS-B
Sat 01:53:37 PM 34.0340 -118.2250 84° East 192 221 3,900 -545 Descending FlightAware ADS-B
Sat 01:54:02 PM 34.0370 -118.2000 82° East 186 214 3,500 -764 Descending FlightAware ADS-B
Sat 01:54:32 PM 34.0410 -118.1670 82° East 182 209 3,200 -514 Descending FlightAware ADS-B
Sat 01:55:12 PM 34.0330 -118.1320 105° East 178 205 2,900 -436 Descending FlightAware ADS-B
Sat 01:55:27 PM 34.0220 -118.1280 163° South 176 203 2,800 -400 Descending FlightAware ADS-B
Sat 01:55:42 PM 34.0090 -118.1270 176° South 180 207 2,700 -545 Descending FlightAware ADS-B
Sat 01:56:22 PM 33.9810 -118.1420 204° Southwest 179 206 2,300 -429 Descending FlightAware ADS-B
Sat 01:56:52 PM 33.9750 -118.1710 256° West 178 205 2,200 -133 Descending FlightAware ADS-B
Sat 01:57:07 PM 33.9740 -118.1820 264° West 177 204 2,200  Level FlightAware ADS-B
Sat 01:57:32 PM 33.9710 -118.2100 263° West 178 205 2,200  Level FlightAware ADS-B
Sat 01:58:02 PM 33.9690 -118.2400 265° West 180 207 2,200  Level FlightAware ADS-B
Sat 01:58:32 PM 33.9660 -118.2690 263° West 177 204 2,200 -429 Level FlightAware ADS-B
Sat 01:59:12 PM 33.9620 -118.3080 263° West 171 197 1,700 -831 Descending FlightAware ADS-B
Sat 01:59:37 PM 33.9600 -118.3280 263° West 160 184 1,300 -600 Descending FlightAware ADS-B
Sat 01:59:52 PM 33.9590 -118.3350 260° West 160 184 1,300 -700 Level FlightAware ADS-B
Sat 02:00:37 PM 33.9550 -118.3720 263° West 156 180 600 -857 Descending FlightAware ADS-B
Sat 02:01:02 PM 33.9530 -118.3950 264° West 154 177 300 -720 Descending FlightAware ADS-B

Login

Don't have an account? Register now (free) for customized features, flight alerts, and more!